TAF and METAR

METAR for Sleipner Oil Platform

ENSL 242350Z AUTO 13016KT 7000NDV OVC009/// 13/12 Q1019 W11/S5
Report created 25. jun 01:50
report generated by an automatic observation system. wind 16 knots from SE (130°) visibility 7000 meters overcast at 900 feet Temperature 13° with dewpoint at 12° (Humidity 93.65%) Pressure 1019 hPa
No TAF available for Sleipner Oil Platform